sensor_id;sensor_type;location;lat;lon;timestamp;pressure;altitude;pressure_sealevel;temperature;humidity
40794;BME280;26502;51.886;15.604;2024-01-30T00:04:33;102205.16;;;-0.72;69.71
40794;BME280;26502;51.886;15.604;2024-01-30T00:09:59;102202.39;;;-0.80;69.64
40794;BME280;26502;51.886;15.604;2024-01-30T00:15:27;102205.67;;;-0.80;69.74
40794;BME280;26502;51.886;15.604;2024-01-30T00:20:53;102204.34;;;-0.79;69.68
40794;BME280;26502;51.886;15.604;2024-01-30T00:26:19;102205.15;;;-0.85;69.66
40794;BME280;26502;51.886;15.604;2024-01-30T00:31:45;102203.45;;;-0.89;69.62
40794;BME280;26502;51.886;15.604;2024-01-30T00:37:11;102206.84;;;-0.96;69.73
40794;BME280;26502;51.886;15.604;2024-01-30T00:42:37;102207.15;;;-0.97;69.80
40794;BME280;26502;51.886;15.604;2024-01-30T00:48:05;102212.86;;;-0.94;69.72
40794;BME280;26502;51.886;15.604;2024-01-30T00:53:32;102213.12;;;-0.96;69.77
40794;BME280;26502;51.886;15.604;2024-01-30T00:58:58;102216.21;;;-1.06;69.90
40794;BME280;26502;51.886;15.604;2024-01-30T01:04:24;102218.36;;;-1.13;69.91
40794;BME280;26502;51.886;15.604;2024-01-30T01:09:51;102220.35;;;-1.11;70.06
40794;BME280;26502;51.886;15.604;2024-01-30T01:15:17;102212.71;;;-1.06;70.06
40794;BME280;26502;51.886;15.604;2024-01-30T01:20:44;102213.14;;;-1.13;69.95
40794;BME280;26502;51.886;15.604;2024-01-30T01:26:10;102207.92;;;-1.12;69.97
40794;BME280;26502;51.886;15.604;2024-01-30T01:31:36;102206.98;;;-1.18;70.03
40794;BME280;26502;51.886;15.604;2024-01-30T01:37:07;102202.70;;;-1.22;70.11
40794;BME280;26502;51.886;15.604;2024-01-30T01:42:33;102210.59;;;-1.33;70.28
40794;BME280;26502;51.886;15.604;2024-01-30T01:48:00;102202.16;;;-1.43;70.52
40794;BME280;26502;51.886;15.604;2024-01-30T01:53:26;102203.58;;;-1.64;70.63
40794;BME280;26502;51.886;15.604;2024-01-30T01:58:55;102202.91;;;-1.75;71.00
40794;BME280;26502;51.886;15.604;2024-01-30T02:04:21;102202.05;;;-1.83;71.19
40794;BME280;26502;51.886;15.604;2024-01-30T02:09:47;102200.71;;;-1.90;71.50
40794;BME280;26502;51.886;15.604;2024-01-30T02:15:15;102199.48;;;-1.90;71.83
40794;BME280;26502;51.886;15.604;2024-01-30T02:20:41;102195.31;;;-1.82;72.10
40794;BME280;26502;51.886;15.604;2024-01-30T02:26:07;102193.64;;;-1.72;72.08
40794;BME280;26502;51.886;15.604;2024-01-30T02:31:34;102185.65;;;-1.67;72.11
40794;BME280;26502;51.886;15.604;2024-01-30T02:37:00;102186.71;;;-1.63;72.02
40794;BME280;26502;51.886;15.604;2024-01-30T02:42:26;102193.23;;;-1.57;71.76
40794;BME280;26502;51.886;15.604;2024-01-30T02:47:52;102185.20;;;-1.53;71.79
40794;BME280;26502;51.886;15.604;2024-01-30T02:53:18;102185.14;;;-1.54;71.80
40794;BME280;26502;51.886;15.604;2024-01-30T02:58:44;102182.98;;;-1.64;71.82
40794;BME280;26502;51.886;15.604;2024-01-30T03:04:10;102179.77;;;-1.71;72.09
40794;BME280;26502;51.886;15.604;2024-01-30T03:09:39;102180.01;;;-1.69;72.40
40794;BME280;26502;51.886;15.604;2024-01-30T03:15:07;102179.05;;;-1.59;72.27
40794;BME280;26502;51.886;15.604;2024-01-30T03:20:34;102172.19;;;-1.56;72.08
40794;BME280;26502;51.886;15.604;2024-01-30T03:26:00;102167.62;;;-1.52;72.00
40794;BME280;26502;51.886;15.604;2024-01-30T03:31:26;102170.42;;;-1.48;71.99
40794;BME280;26502;51.886;15.604;2024-01-30T03:36:52;102169.77;;;-1.47;72.14
40794;BME280;26502;51.886;15.604;2024-01-30T03:42:18;102163.05;;;-1.49;71.93
40794;BME280;26502;51.886;15.604;2024-01-30T03:47:46;102168.95;;;-1.54;72.19
40794;BME280;26502;51.886;15.604;2024-01-30T03:53:13;102172.12;;;-1.58;72.31
40794;BME280;26502;51.886;15.604;2024-01-30T03:58:39;102170.42;;;-1.61;72.28
40794;BME280;26502;51.886;15.604;2024-01-30T04:04:06;102170.30;;;-1.59;72.30
40794;BME280;26502;51.886;15.604;2024-01-30T04:09:32;102172.48;;;-1.61;72.19
40794;BME280;26502;51.886;15.604;2024-01-30T04:14:58;102166.25;;;-1.69;72.14
40794;BME280;26502;51.886;15.604;2024-01-30T04:20:24;102164.32;;;-1.74;72.58
40794;BME280;26502;51.886;15.604;2024-01-30T04:25:50;102160.31;;;-1.74;72.64
40794;BME280;26502;51.886;15.604;2024-01-30T04:31:16;102159.70;;;-1.72;72.55
40794;BME280;26502;51.886;15.604;2024-01-30T04:36:45;102160.77;;;-1.67;72.56
40794;BME280;26502;51.886;15.604;2024-01-30T04:42:11;102160.36;;;-1.64;72.63
40794;BME280;26502;51.886;15.604;2024-01-30T04:47:37;102164.67;;;-1.65;72.37
40794;BME280;26502;51.886;15.604;2024-01-30T04:53:04;102160.64;;;-1.66;72.38
40794;BME280;26502;51.886;15.604;2024-01-30T04:58:31;102163.20;;;-1.67;72.51
40794;BME280;26502;51.886;15.604;2024-01-30T05:03:57;102167.46;;;-1.65;72.36
40794;BME280;26502;51.886;15.604;2024-01-30T05:09:23;102173.09;;;-1.64;72.38
40794;BME280;26502;51.886;15.604;2024-01-30T05:14:48;102175.73;;;-1.64;72.58
40794;BME280;26502;51.886;15.604;2024-01-30T05:20:16;102178.30;;;-1.60;72.72
40794;BME280;26502;51.886;15.604;2024-01-30T05:25:42;102173.80;;;-1.55;72.33
40794;BME280;26502;51.886;15.604;2024-01-30T05:31:09;102176.70;;;-1.60;72.44
40794;BME280;26502;51.886;15.604;2024-01-30T05:36:35;102177.94;;;-1.60;72.42
40794;BME280;26502;51.886;15.604;2024-01-30T05:42:01;102182.08;;;-1.61;72.49
40794;BME280;26502;51.886;15.604;2024-01-30T05:47:27;102180.36;;;-1.61;72.40
40794;BME280;26502;51.886;15.604;2024-01-30T05:52:53;102177.13;;;-1.63;72.43
40794;BME280;26502;51.886;15.604;2024-01-30T05:58:19;102174.92;;;-1.61;72.52
40794;BME280;26502;51.886;15.604;2024-01-30T06:03:48;102175.92;;;-1.58;72.37
40794;BME280;26502;51.886;15.604;2024-01-30T06:09:13;102172.23;;;-1.59;72.34
40794;BME280;26502;51.886;15.604;2024-01-30T06:14:40;102172.77;;;-1.59;72.53
40794;BME280;26502;51.886;15.604;2024-01-30T06:20:08;102171.01;;;-1.59;72.69
40794;BME280;26502;51.886;15.604;2024-01-30T06:25:34;102173.77;;;-1.60;72.65
40794;BME280;26502;51.886;15.604;2024-01-30T06:31:02;102171.02;;;-1.63;72.43
40794;BME280;26502;51.886;15.604;2024-01-30T06:36:28;102174.25;;;-1.65;72.56
40794;BME280;26502;51.886;15.604;2024-01-30T06:41:54;102172.94;;;-1.67;72.74
40794;BME280;26502;51.886;15.604;2024-01-30T06:47:20;102172.23;;;-1.63;73.06
40794;BME280;26502;51.886;15.604;2024-01-30T06:52:46;102177.86;;;-1.58;73.12
40794;BME280;26502;51.886;15.604;2024-01-30T06:58:13;102175.49;;;-1.51;73.34
40794;BME280;26502;51.886;15.604;2024-01-30T07:03:39;102175.14;;;-1.43;73.59
40794;BME280;26502;51.886;15.604;2024-01-30T07:09:08;102173.71;;;-1.31;73.38
40794;BME280;26502;51.886;15.604;2024-01-30T07:14:34;102170.63;;;-1.30;73.47
40794;BME280;26502;51.886;15.604;2024-01-30T07:20:01;102169.02;;;-1.18;73.66
40794;BME280;26502;51.886;15.604;2024-01-30T07:25:27;102167.19;;;-1.02;73.73
40794;BME280;26502;51.886;15.604;2024-01-30T07:30:54;102168.20;;;-0.84;73.82
40794;BME280;26502;51.886;15.604;2024-01-30T07:36:20;102173.80;;;-0.70;73.89
40794;BME280;26502;51.886;15.604;2024-01-30T07:41:46;102175.84;;;-0.58;74.00
40794;BME280;26502;51.886;15.604;2024-01-30T07:47:12;102177.61;;;-0.43;73.91
40794;BME280;26502;51.886;15.604;2024-01-30T07:52:39;102176.73;;;-0.24;74.17
40794;BME280;26502;51.886;15.604;2024-01-30T07:58:05;102174.73;;;-0.06;74.35
40794;BME280;26502;51.886;15.604;2024-01-30T08:03:31;102167.67;;;0.12;74.46
40794;BME280;26502;51.886;15.604;2024-01-30T08:08:57;102170.77;;;0.26;74.55
40794;BME280;26502;51.886;15.604;2024-01-30T08:14:24;102170.00;;;0.40;74.50
40794;BME280;26502;51.886;15.604;2024-01-30T08:19:51;102171.27;;;0.57;74.64
40794;BME280;26502;51.886;15.604;2024-01-30T08:25:17;102170.45;;;0.70;74.66
40794;BME280;26502;51.886;15.604;2024-01-30T08:30:43;102167.84;;;0.81;74.80
40794;BME280;26502;51.886;15.604;2024-01-30T08:36:09;102168.85;;;0.91;74.97
40794;BME280;26502;51.886;15.604;2024-01-30T08:41:36;102157.58;;;1.00;75.07
40794;BME280;26502;51.886;15.604;2024-01-30T08:47:02;102152.13;;;1.11;75.25
40794;BME280;26502;51.886;15.604;2024-01-30T08:52:30;102151.49;;;1.25;75.43
40794;BME280;26502;51.886;15.604;2024-01-30T08:57:58;102152.14;;;1.60;75.62
40794;BME280;26502;51.886;15.604;2024-01-30T09:03:24;102149.06;;;1.88;75.47
40794;BME280;26502;51.886;15.604;2024-01-30T09:08:50;102141.30;;;2.27;75.43
40794;BME280;26502;51.886;15.604;2024-01-30T09:14:16;102135.37;;;2.57;75.36
40794;BME280;26502;51.886;15.604;2024-01-30T09:19:43;102133.19;;;2.84;75.19
40794;BME280;26502;51.886;15.604;2024-01-30T09:25:09;102126.15;;;3.07;74.98
40794;BME280;26502;51.886;15.604;2024-01-30T09:30:35;102123.23;;;3.18;74.81
40794;BME280;26502;51.886;15.604;2024-01-30T09:36:01;102127.34;;;3.30;74.81
40794;BME280;26502;51.886;15.604;2024-01-30T09:41:29;102122.78;;;3.48;74.72
40794;BME280;26502;51.886;15.604;2024-01-30T09:46:55;102124.17;;;3.65;74.55
40794;BME280;26502;51.886;15.604;2024-01-30T09:52:23;102121.19;;;3.94;74.36
40794;BME280;26502;51.886;15.604;2024-01-30T09:57:49;102117.70;;;4.27;74.22
40794;BME280;26502;51.886;15.604;2024-01-30T10:03:15;102115.66;;;4.64;73.98
40794;BME280;26502;51.886;15.604;2024-01-30T10:08:43;102115.17;;;5.05;73.44
40794;BME280;26502;51.886;15.604;2024-01-30T10:14:09;102111.17;;;5.36;72.88
40794;BME280;26502;51.886;15.604;2024-01-30T10:19:35;102104.59;;;5.60;72.67
40794;BME280;26502;51.886;15.604;2024-01-30T10:25:01;102092.17;;;5.89;72.15
40794;BME280;26502;51.886;15.604;2024-01-30T10:30:28;102083.80;;;6.14;71.72
40794;BME280;26502;51.886;15.604;2024-01-30T10:35:55;102078.89;;;6.40;71.42
40794;BME280;26502;51.886;15.604;2024-01-30T10:41:28;102075.87;;;6.63;71.10
40794;BME280;26502;51.886;15.604;2024-01-30T10:47:00;102071.79;;;6.91;70.03
40794;BME280;26502;51.886;15.604;2024-01-30T10:52:30;102068.20;;;7.19;69.30
40794;BME280;26502;51.886;15.604;2024-01-30T10:57:57;102068.09;;;7.42;68.82
40794;BME280;26502;51.886;15.604;2024-01-30T11:03:24;102062.15;;;7.69;68.51
40794;BME280;26502;51.886;15.604;2024-01-30T11:09:01;102051.73;;;7.95;67.94
40794;BME280;26502;51.886;15.604;2024-01-30T11:14:30;102043.24;;;8.19;67.68
40794;BME280;26502;51.886;15.604;2024-01-30T11:20:00;102037.55;;;8.47;67.03
40794;BME280;26502;51.886;15.604;2024-01-30T11:25:27;102031.66;;;8.74;66.52
40794;BME280;26502;51.886;15.604;2024-01-30T11:31:04;102025.89;;;9.02;66.22
40794;BME280;26502;51.886;15.604;2024-01-30T11:36:33;102021.00;;;9.26;63.97
40794;BME280;26502;51.886;15.604;2024-01-30T11:42:02;102010.38;;;9.48;60.66
40794;BME280;26502;51.886;15.604;2024-01-30T11:47:29;102007.64;;;9.60;60.12
40794;BME280;26502;51.886;15.604;2024-01-30T11:52:56;102004.25;;;9.65;60.24
40794;BME280;26502;51.886;15.604;2024-01-30T11:58:26;101997.95;;;9.75;59.63
40794;BME280;26502;51.886;15.604;2024-01-30T12:03:52;101993.86;;;9.75;59.07
40794;BME280;26502;51.886;15.604;2024-01-30T12:09:18;101992.26;;;9.77;58.97
40794;BME280;26502;51.886;15.604;2024-01-30T12:14:45;101995.19;;;9.88;58.67
40794;BME280;26502;51.886;15.604;2024-01-30T12:20:13;101991.23;;;9.94;58.61
40794;BME280;26502;51.886;15.604;2024-01-30T12:25:40;101985.48;;;10.03;58.14
40794;BME280;26502;51.886;15.604;2024-01-30T12:31:07;101977.37;;;10.15;58.11
40794;BME280;26502;51.886;15.604;2024-01-30T12:36:35;101969.85;;;10.41;58.25
40794;BME280;26502;51.886;15.604;2024-01-30T12:42:01;101959.43;;;10.66;57.73
40794;BME280;26502;51.886;15.604;2024-01-30T12:47:27;101954.52;;;10.75;56.85
40794;BME280;26502;51.886;15.604;2024-01-30T12:52:53;101952.34;;;10.79;56.71
40794;BME280;26502;51.886;15.604;2024-01-30T12:58:22;101952.95;;;10.73;56.22
40794;BME280;26502;51.886;15.604;2024-01-30T13:03:48;101950.32;;;10.71;55.58
40794;BME280;26502;51.886;15.604;2024-01-30T13:09:15;101954.05;;;10.71;55.21
40794;BME280;26502;51.886;15.604;2024-01-30T13:14:41;101950.89;;;10.68;55.14
40794;BME280;26502;51.886;15.604;2024-01-30T13:20:09;101948.08;;;10.65;54.73
40794;BME280;26502;51.886;15.604;2024-01-30T13:25:36;101944.98;;;10.57;53.87
40794;BME280;26502;51.886;15.604;2024-01-30T13:31:02;101943.45;;;10.52;53.74
40794;BME280;26502;51.886;15.604;2024-01-30T13:36:29;101943.30;;;10.50;53.75
40794;BME280;26502;51.886;15.604;2024-01-30T13:41:55;101938.04;;;10.43;51.40
40794;BME280;26502;51.886;15.604;2024-01-30T13:47:21;101935.27;;;10.38;51.20
40794;BME280;26502;51.886;15.604;2024-01-30T13:52:50;101936.16;;;10.17;50.06
40794;BME280;26502;51.886;15.604;2024-01-30T13:58:18;101928.26;;;9.92;49.74
40794;BME280;26502;51.886;15.604;2024-01-30T14:03:44;101928.19;;;9.81;49.67
40794;BME280;26502;51.886;15.604;2024-01-30T14:09:10;101930.92;;;9.73;49.55
40794;BME280;26502;51.886;15.604;2024-01-30T14:14:36;101934.70;;;9.68;49.56
40794;BME280;26502;51.886;15.604;2024-01-30T14:20:02;101926.45;;;9.57;49.04
40794;BME280;26502;51.886;15.604;2024-01-30T14:25:28;101930.23;;;9.50;49.86
40794;BME280;26502;51.886;15.604;2024-01-30T14:30:54;101930.83;;;9.39;49.64
40794;BME280;26502;51.886;15.604;2024-01-30T14:36:20;101936.97;;;9.25;49.44
40794;BME280;26502;51.886;15.604;2024-01-30T14:41:46;101938.66;;;9.09;49.35
40794;BME280;26502;51.886;15.604;2024-01-30T14:47:13;101947.43;;;8.93;49.55
40794;BME280;26502;51.886;15.604;2024-01-30T14:52:39;101942.19;;;8.80;49.42
40794;BME280;26502;51.886;15.604;2024-01-30T14:58:05;101938.01;;;8.66;49.81
40794;BME280;26502;51.886;15.604;2024-01-30T15:03:31;101935.23;;;8.46;49.78
40794;BME280;26502;51.886;15.604;2024-01-30T15:08:57;101930.49;;;8.31;50.33
40794;BME280;26502;51.886;15.604;2024-01-30T15:14:24;101937.25;;;8.14;50.46
40794;BME280;26502;51.886;15.604;2024-01-30T15:19:50;101942.23;;;7.98;50.60
40794;BME280;26502;51.886;15.604;2024-01-30T15:25:16;101946.85;;;7.82;50.74
40794;BME280;26502;51.886;15.604;2024-01-30T15:30:42;101940.48;;;7.63;50.75
40794;BME280;26502;51.886;15.604;2024-01-30T15:36:09;101939.95;;;7.45;50.85
40794;BME280;26502;51.886;15.604;2024-01-30T15:41:37;101939.06;;;7.29;51.09
40794;BME280;26502;51.886;15.604;2024-01-30T15:47:04;101941.85;;;7.12;51.27
40794;BME280;26502;51.886;15.604;2024-01-30T15:52:32;101936.17;;;6.95;51.49
40794;BME280;26502;51.886;15.604;2024-01-30T15:57:58;101935.40;;;6.79;51.75
40794;BME280;26502;51.886;15.604;2024-01-30T16:03:24;101941.90;;;6.69;52.00
40794;BME280;26502;51.886;15.604;2024-01-30T16:08:50;101946.64;;;6.61;52.11
40794;BME280;26502;51.886;15.604;2024-01-30T16:14:16;101943.23;;;6.51;52.32
40794;BME280;26502;51.886;15.604;2024-01-30T16:19:42;101943.00;;;6.38;52.59
40794;BME280;26502;51.886;15.604;2024-01-30T16:25:09;101948.40;;;6.24;52.73
40794;BME280;26502;51.886;15.604;2024-01-30T16:30:35;101943.56;;;6.13;53.02
40794;BME280;26502;51.886;15.604;2024-01-30T16:36:02;101946.91;;;6.12;53.46
40794;BME280;26502;51.886;15.604;2024-01-30T16:41:28;101951.65;;;6.08;53.76
40794;BME280;26502;51.886;15.604;2024-01-30T16:46:54;101949.67;;;6.03;53.88
40794;BME280;26502;51.886;15.604;2024-01-30T16:52:20;101949.63;;;5.76;53.64
40794;BME280;26502;51.886;15.604;2024-01-30T16:57:46;101953.98;;;5.50;53.99
40794;BME280;26502;51.886;15.604;2024-01-30T17:03:12;101950.66;;;5.33;54.37
40794;BME280;26502;51.886;15.604;2024-01-30T17:08:38;101950.21;;;5.23;54.44
40794;BME280;26502;51.886;15.604;2024-01-30T17:14:04;101954.35;;;5.15;54.71
40794;BME280;26502;51.886;15.604;2024-01-30T17:19:30;101951.48;;;5.09;55.06
40794;BME280;26502;51.886;15.604;2024-01-30T17:24:56;101953.66;;;5.00;55.07
40794;BME280;26502;51.886;15.604;2024-01-30T17:30:23;101952.14;;;4.90;55.41
40794;BME280;26502;51.886;15.604;2024-01-30T17:35:49;101951.73;;;4.84;55.60
40794;BME280;26502;51.886;15.604;2024-01-30T17:41:15;101952.71;;;4.78;55.80
40794;BME280;26502;51.886;15.604;2024-01-30T17:46:43;101960.05;;;4.74;56.12
40794;BME280;26502;51.886;15.604;2024-01-30T17:52:09;101962.83;;;4.72;56.38
40794;BME280;26502;51.886;15.604;2024-01-30T17:57:35;101959.27;;;4.68;56.52
40794;BME280;26502;51.886;15.604;2024-01-30T18:03:02;101960.69;;;4.69;56.77
40794;BME280;26502;51.886;15.604;2024-01-30T18:08:29;101953.57;;;4.75;57.01
40794;BME280;26502;51.886;15.604;2024-01-30T18:13:55;101954.39;;;4.71;57.04
40794;BME280;26502;51.886;15.604;2024-01-30T18:19:21;101960.74;;;4.58;57.14
40794;BME280;26502;51.886;15.604;2024-01-30T18:24:47;101954.29;;;4.49;57.40
40794;BME280;26502;51.886;15.604;2024-01-30T18:30:14;101955.58;;;4.40;57.43
40794;BME280;26502;51.886;15.604;2024-01-30T18:35:40;101950.65;;;4.28;57.78
40794;BME280;26502;51.886;15.604;2024-01-30T18:41:07;101947.79;;;4.23;57.96
40794;BME280;26502;51.886;15.604;2024-01-30T18:46:33;101957.84;;;4.13;58.03
40794;BME280;26502;51.886;15.604;2024-01-30T18:52:00;101960.20;;;3.95;58.33
40794;BME280;26502;51.886;15.604;2024-01-30T18:57:28;101957.37;;;3.82;58.48
40794;BME280;26502;51.886;15.604;2024-01-30T19:02:55;101955.77;;;3.80;58.77
40794;BME280;26502;51.886;15.604;2024-01-30T19:08:21;101963.48;;;3.81;58.97
40794;BME280;26502;51.886;15.604;2024-01-30T19:13:47;101961.81;;;3.75;59.20
40794;BME280;26502;51.886;15.604;2024-01-30T19:19:14;101966.23;;;3.65;59.15
40794;BME280;26502;51.886;15.604;2024-01-30T19:24:40;101967.11;;;3.55;59.61
40794;BME280;26502;51.886;15.604;2024-01-30T19:30:08;101968.84;;;3.63;59.99
40794;BME280;26502;51.886;15.604;2024-01-30T19:35:34;101967.77;;;3.72;60.14
40794;BME280;26502;51.886;15.604;2024-01-30T19:41:00;101975.05;;;3.77;60.28
40794;BME280;26502;51.886;15.604;2024-01-30T19:46:27;101975.64;;;3.82;60.40
40794;BME280;26502;51.886;15.604;2024-01-30T19:51:53;101976.66;;;3.80;60.58
40794;BME280;26502;51.886;15.604;2024-01-30T19:57:20;101978.02;;;3.76;60.75
40794;BME280;26502;51.886;15.604;2024-01-30T20:02:46;101974.62;;;3.72;60.96
40794;BME280;26502;51.886;15.604;2024-01-30T20:08:13;101978.93;;;3.68;61.12
40794;BME280;26502;51.886;15.604;2024-01-30T20:13:40;101981.26;;;3.60;61.24
40794;BME280;26502;51.886;15.604;2024-01-30T20:19:06;101980.80;;;3.54;61.43
40794;BME280;26502;51.886;15.604;2024-01-30T20:24:33;101985.02;;;3.54;61.73
40794;BME280;26502;51.886;15.604;2024-01-30T20:29:59;101984.38;;;3.58;61.86
40794;BME280;26502;51.886;15.604;2024-01-30T20:35:25;101987.69;;;3.66;61.84
40794;BME280;26502;51.886;15.604;2024-01-30T20:40:53;101989.05;;;3.65;61.98
40794;BME280;26502;51.886;15.604;2024-01-30T20:46:19;101991.57;;;3.67;62.22
40794;BME280;26502;51.886;15.604;2024-01-30T20:51:45;101992.98;;;3.69;62.43
40794;BME280;26502;51.886;15.604;2024-01-30T20:57:11;101993.61;;;3.74;62.57
40794;BME280;26502;51.886;15.604;2024-01-30T21:02:37;101988.44;;;3.80;62.77
40794;BME280;26502;51.886;15.604;2024-01-30T21:08:04;101987.84;;;3.87;63.01
40794;BME280;26502;51.886;15.604;2024-01-30T21:13:30;101985.64;;;3.92;63.22
40794;BME280;26502;51.886;15.604;2024-01-30T21:18:56;101983.58;;;3.95;63.35
40794;BME280;26502;51.886;15.604;2024-01-30T21:24:22;101986.40;;;3.96;63.55
40794;BME280;26502;51.886;15.604;2024-01-30T21:29:48;101988.88;;;3.97;63.63
40794;BME280;26502;51.886;15.604;2024-01-30T21:35:14;101992.63;;;3.99;63.78
40794;BME280;26502;51.886;15.604;2024-01-30T21:40:40;101996.10;;;3.98;63.88
40794;BME280;26502;51.886;15.604;2024-01-30T21:46:06;101998.56;;;3.98;63.93
40794;BME280;26502;51.886;15.604;2024-01-30T21:51:32;102001.86;;;3.96;64.02
40794;BME280;26502;51.886;15.604;2024-01-30T21:56:58;101999.39;;;3.94;64.08
40794;BME280;26502;51.886;15.604;2024-01-30T22:02:24;102001.82;;;3.92;64.08
40794;BME280;26502;51.886;15.604;2024-01-30T22:07:50;102002.63;;;3.88;64.36
40794;BME280;26502;51.886;15.604;2024-01-30T22:13:16;102007.39;;;3.88;64.54
40794;BME280;26502;51.886;15.604;2024-01-30T22:18:44;102009.20;;;3.92;64.86
40794;BME280;26502;51.886;15.604;2024-01-30T22:24:11;102009.55;;;3.92;64.88
40794;BME280;26502;51.886;15.604;2024-01-30T22:29:37;102016.98;;;3.95;65.10
40794;BME280;26502;51.886;15.604;2024-01-30T22:35:07;102011.29;;;4.02;65.44
40794;BME280;26502;51.886;15.604;2024-01-30T22:40:34;102015.95;;;4.08;65.57
40794;BME280;26502;51.886;15.604;2024-01-30T22:46:02;102020.10;;;4.15;65.73
40794;BME280;26502;51.886;15.604;2024-01-30T22:51:29;102018.13;;;4.23;65.88
40794;BME280;26502;51.886;15.604;2024-01-30T22:56:55;102017.70;;;4.31;65.95
40794;BME280;26502;51.886;15.604;2024-01-30T23:02:22;102019.02;;;4.37;66.12
40794;BME280;26502;51.886;15.604;2024-01-30T23:07:48;102028.20;;;4.39;66.22
40794;BME280;26502;51.886;15.604;2024-01-30T23:13:15;102030.06;;;4.33;66.18
40794;BME280;26502;51.886;15.604;2024-01-30T23:18:41;102029.40;;;4.24;66.26
40794;BME280;26502;51.886;15.604;2024-01-30T23:24:08;102027.49;;;4.16;66.34
40794;BME280;26502;51.886;15.604;2024-01-30T23:29:34;102020.71;;;4.09;66.47
40794;BME280;26502;51.886;15.604;2024-01-30T23:35:02;102023.41;;;4.01;66.61
40794;BME280;26502;51.886;15.604;2024-01-30T23:40:28;102021.50;;;3.92;66.73
40794;BME280;26502;51.886;15.604;2024-01-30T23:45:55;102021.69;;;3.82;66.72
40794;BME280;26502;51.886;15.604;2024-01-30T23:51:21;102025.92;;;3.73;66.96
40794;BME280;26502;51.886;15.604;2024-01-30T23:56:46;102020.89;;;3.66;67.13
